sensor_id;sensor_type;location;lat;lon;timestamp;temperature;humidity
76102;SHT30;64830;46.910;6.354;2024-02-28T00:00:10;5.65;83.84
76102;SHT30;64830;46.910;6.354;2024-02-28T00:02:36;5.62;83.94
76102;SHT30;64830;46.910;6.354;2024-02-28T00:05:01;5.66;83.83
76102;SHT30;64830;46.910;6.354;2024-02-28T00:07:27;5.68;84.15
76102;SHT30;64830;46.910;6.354;2024-02-28T00:09:52;5.68;84.27
76102;SHT30;64830;46.910;6.354;2024-02-28T00:12:22;5.69;84.03
76102;SHT30;64830;46.910;6.354;2024-02-28T00:14:50;5.72;84.19
76102;SHT30;64830;46.910;6.354;2024-02-28T00:17:15;5.75;84.16
76102;SHT30;64830;46.910;6.354;2024-02-28T00:19:41;5.75;84.10
76102;SHT30;64830;46.910;6.354;2024-02-28T00:22:08;5.76;84.19
76102;SHT30;64830;46.910;6.354;2024-02-28T00:24:33;5.76;84.18
76102;SHT30;64830;46.910;6.354;2024-02-28T00:26:58;5.72;83.93
76102;SHT30;64830;46.910;6.354;2024-02-28T00:29:24;5.69;84.06
76102;SHT30;64830;46.910;6.354;2024-02-28T00:31:49;5.66;84.23
76102;SHT30;64830;46.910;6.354;2024-02-28T00:34:14;5.66;84.15
76102;SHT30;64830;46.910;6.354;2024-02-28T00:36:40;5.66;84.26
76102;SHT30;64830;46.910;6.354;2024-02-28T00:39:05;5.69;84.34
76102;SHT30;64830;46.910;6.354;2024-02-28T00:41:31;5.69;84.39
76102;SHT30;64830;46.910;6.354;2024-02-28T00:43:56;5.65;83.98
76102;SHT30;64830;46.910;6.354;2024-02-28T00:46:22;5.63;84.31
76102;SHT30;64830;46.910;6.354;2024-02-28T00:48:47;5.65;84.44
76102;SHT30;64830;46.910;6.354;2024-02-28T00:51:12;5.62;84.28
76102;SHT30;64830;46.910;6.354;2024-02-28T00:53:38;5.62;84.35
76102;SHT30;64830;46.910;6.354;2024-02-28T00:56:04;5.62;84.37
76102;SHT30;64830;46.910;6.354;2024-02-28T00:58:30;5.61;84.45
76102;SHT30;64830;46.910;6.354;2024-02-28T01:00:56;5.62;84.51
76102;SHT30;64830;46.910;6.354;2024-02-28T01:03:22;5.65;84.44
76102;SHT30;64830;46.910;6.354;2024-02-28T01:05:49;5.68;84.10
76102;SHT30;64830;46.910;6.354;2024-02-28T01:08:15;5.66;84.30
76102;SHT30;64830;46.910;6.354;2024-02-28T01:10:42;5.66;84.43
76102;SHT30;64830;46.910;6.354;2024-02-28T01:13:08;5.66;84.20
76102;SHT30;64830;46.910;6.354;2024-02-28T01:15:33;5.69;84.10
76102;SHT30;64830;46.910;6.354;2024-02-28T01:17:58;5.72;83.70
76102;SHT30;64830;46.910;6.354;2024-02-28T01:20:24;5.66;84.01
76102;SHT30;64830;46.910;6.354;2024-02-28T01:22:49;5.68;83.94
76102;SHT30;64830;46.910;6.354;2024-02-28T01:25:14;5.68;83.88
76102;SHT30;64830;46.910;6.354;2024-02-28T01:27:40;5.66;83.83
76102;SHT30;64830;46.910;6.354;2024-02-28T01:30:06;5.63;83.92
76102;SHT30;64830;46.910;6.354;2024-02-28T01:32:31;5.65;83.82
76102;SHT30;64830;46.910;6.354;2024-02-28T01:34:57;5.58;83.83
76102;SHT30;64830;46.910;6.354;2024-02-28T01:37:22;5.56;83.81
76102;SHT30;64830;46.910;6.354;2024-02-28T01:39:48;5.54;83.83
76102;SHT30;64830;46.910;6.354;2024-02-28T01:42:16;5.48;83.83
76102;SHT30;64830;46.910;6.354;2024-02-28T01:44:47;5.43;83.77
76102;SHT30;64830;46.910;6.354;2024-02-28T01:47:16;5.43;84.20
76102;SHT30;64830;46.910;6.354;2024-02-28T01:49:42;5.41;83.95
76102;SHT30;64830;46.910;6.354;2024-02-28T01:52:10;5.37;84.18
76102;SHT30;64830;46.910;6.354;2024-02-28T01:54:35;5.37;84.06
76102;SHT30;64830;46.910;6.354;2024-02-28T01:57:02;5.38;84.21
76102;SHT30;64830;46.910;6.354;2024-02-28T01:59:28;5.41;84.17
76102;SHT30;64830;46.910;6.354;2024-02-28T02:01:55;5.41;84.03
76102;SHT30;64830;46.910;6.354;2024-02-28T02:04:20;5.45;84.24
76102;SHT30;64830;46.910;6.354;2024-02-28T02:06:47;5.48;83.91
76102;SHT30;64830;46.910;6.354;2024-02-28T02:09:15;5.48;83.89
76102;SHT30;64830;46.910;6.354;2024-02-28T02:11:40;5.51;83.76
76102;SHT30;64830;46.910;6.354;2024-02-28T02:14:06;5.50;83.58
76102;SHT30;64830;46.910;6.354;2024-02-28T02:16:31;5.50;83.79
76102;SHT30;64830;46.910;6.354;2024-02-28T02:18:57;5.52;83.74
76102;SHT30;64830;46.910;6.354;2024-02-28T02:21:23;5.54;83.70
76102;SHT30;64830;46.910;6.354;2024-02-28T02:23:51;5.55;83.56
76102;SHT30;64830;46.910;6.354;2024-02-28T02:26:16;5.56;83.44
76102;SHT30;64830;46.910;6.354;2024-02-28T02:28:42;5.56;83.44
76102;SHT30;64830;46.910;6.354;2024-02-28T02:31:08;5.58;83.27
76102;SHT30;64830;46.910;6.354;2024-02-28T02:33:33;5.61;83.38
76102;SHT30;64830;46.910;6.354;2024-02-28T02:35:58;5.65;83.08
76102;SHT30;64830;46.910;6.354;2024-02-28T02:38:24;5.65;83.15
76102;SHT30;64830;46.910;6.354;2024-02-28T02:40:50;5.68;83.10
76102;SHT30;64830;46.910;6.354;2024-02-28T02:43:16;5.72;83.08
76102;SHT30;64830;46.910;6.354;2024-02-28T02:45:41;5.75;82.81
76102;SHT30;64830;46.910;6.354;2024-02-28T02:48:07;5.76;82.76
76102;SHT30;64830;46.910;6.354;2024-02-28T02:50:32;5.79;82.58
76102;SHT30;64830;46.910;6.354;2024-02-28T02:52:57;5.79;82.41
76102;SHT30;64830;46.910;6.354;2024-02-28T02:55:23;5.78;82.47
76102;SHT30;64830;46.910;6.354;2024-02-28T02:57:48;5.80;82.32
76102;SHT30;64830;46.910;6.354;2024-02-28T03:00:14;5.75;82.26
76102;SHT30;64830;46.910;6.354;2024-02-28T03:02:39;5.71;82.38
76102;SHT30;64830;46.910;6.354;2024-02-28T03:05:05;5.71;82.53
76102;SHT30;64830;46.910;6.354;2024-02-28T03:07:31;5.69;82.31
76102;SHT30;64830;46.910;6.354;2024-02-28T03:09:57;5.66;82.45
76102;SHT30;64830;46.910;6.354;2024-02-28T03:12:23;5.66;82.51
76102;SHT30;64830;46.910;6.354;2024-02-28T03:14:48;5.68;82.56
76102;SHT30;64830;46.910;6.354;2024-02-28T03:17:14;5.68;82.56
76102;SHT30;64830;46.910;6.354;2024-02-28T03:19:43;5.66;82.50
76102;SHT30;64830;46.910;6.354;2024-02-28T03:22:09;5.65;82.40
76102;SHT30;64830;46.910;6.354;2024-02-28T03:24:34;5.61;82.34
76102;SHT30;64830;46.910;6.354;2024-02-28T03:27:01;5.58;82.53
76102;SHT30;64830;46.910;6.354;2024-02-28T03:29:27;5.55;82.50
76102;SHT30;64830;46.910;6.354;2024-02-28T03:31:52;5.51;82.57
76102;SHT30;64830;46.910;6.354;2024-02-28T03:34:17;5.45;82.45
76102;SHT30;64830;46.910;6.354;2024-02-28T03:36:44;5.47;82.40
76102;SHT30;64830;46.910;6.354;2024-02-28T03:39:09;5.44;82.40
76102;SHT30;64830;46.910;6.354;2024-02-28T03:41:35;5.41;82.44
76102;SHT30;64830;46.910;6.354;2024-02-28T03:44:00;5.38;82.56
76102;SHT30;64830;46.910;6.354;2024-02-28T03:46:26;5.40;82.51
76102;SHT30;64830;46.910;6.354;2024-02-28T03:48:51;5.38;82.66
76102;SHT30;64830;46.910;6.354;2024-02-28T03:51:17;5.38;82.68
76102;SHT30;64830;46.910;6.354;2024-02-28T03:53:42;5.41;82.76
76102;SHT30;64830;46.910;6.354;2024-02-28T03:56:08;5.44;82.58
76102;SHT30;64830;46.910;6.354;2024-02-28T03:58:33;5.47;82.41
76102;SHT30;64830;46.910;6.354;2024-02-28T04:00:59;5.48;82.19
76102;SHT30;64830;46.910;6.354;2024-02-28T04:03:24;5.51;82.24
76102;SHT30;64830;46.910;6.354;2024-02-28T04:05:49;5.48;82.07
76102;SHT30;64830;46.910;6.354;2024-02-28T04:08:15;5.50;81.97
76102;SHT30;64830;46.910;6.354;2024-02-28T04:10:40;5.52;82.05
76102;SHT30;64830;46.910;6.354;2024-02-28T04:13:06;5.52;82.00
76102;SHT30;64830;46.910;6.354;2024-02-28T04:15:32;5.59;81.98
76102;SHT30;64830;46.910;6.354;2024-02-28T04:17:57;5.61;81.93
76102;SHT30;64830;46.910;6.354;2024-02-28T04:20:23;5.63;81.80
76102;SHT30;64830;46.910;6.354;2024-02-28T04:22:48;5.65;81.60
76102;SHT30;64830;46.910;6.354;2024-02-28T04:25:13;5.62;81.34
76102;SHT30;64830;46.910;6.354;2024-02-28T04:27:39;5.55;81.44
76102;SHT30;64830;46.910;6.354;2024-02-28T04:30:05;5.51;81.38
76102;SHT30;64830;46.910;6.354;2024-02-28T04:32:31;5.47;81.47
76102;SHT30;64830;46.910;6.354;2024-02-28T04:34:56;5.41;81.40
76102;SHT30;64830;46.910;6.354;2024-02-28T04:37:22;5.38;81.53
76102;SHT30;64830;46.910;6.354;2024-02-28T04:39:48;5.34;81.48
76102;SHT30;64830;46.910;6.354;2024-02-28T04:42:14;5.28;81.63
76102;SHT30;64830;46.910;6.354;2024-02-28T04:44:40;5.27;81.48
76102;SHT30;64830;46.910;6.354;2024-02-28T04:47:05;5.23;81.53
76102;SHT30;64830;46.910;6.354;2024-02-28T04:49:30;5.22;81.62
76102;SHT30;64830;46.910;6.354;2024-02-28T04:51:56;5.20;81.49
76102;SHT30;64830;46.910;6.354;2024-02-28T04:54:21;5.17;81.50
76102;SHT30;64830;46.910;6.354;2024-02-28T04:56:47;5.17;81.45
76102;SHT30;64830;46.910;6.354;2024-02-28T04:59:12;5.16;81.44
76102;SHT30;64830;46.910;6.354;2024-02-28T05:01:38;5.17;81.56
76102;SHT30;64830;46.910;6.354;2024-02-28T05:04:08;5.17;81.62
76102;SHT30;64830;46.910;6.354;2024-02-28T05:06:34;5.17;81.49
76102;SHT30;64830;46.910;6.354;2024-02-28T05:09:00;5.15;81.34
76102;SHT30;64830;46.910;6.354;2024-02-28T05:11:25;5.15;81.40
76102;SHT30;64830;46.910;6.354;2024-02-28T05:13:51;5.15;81.56
76102;SHT30;64830;46.910;6.354;2024-02-28T05:16:16;5.16;81.49
76102;SHT30;64830;46.910;6.354;2024-02-28T05:18:43;5.15;81.40
76102;SHT30;64830;46.910;6.354;2024-02-28T05:21:09;5.16;81.46
76102;SHT30;64830;46.910;6.354;2024-02-28T05:23:35;5.13;81.45
76102;SHT30;64830;46.910;6.354;2024-02-28T05:26:01;5.13;81.50
76102;SHT30;64830;46.910;6.354;2024-02-28T05:28:30;5.15;81.41
76102;SHT30;64830;46.910;6.354;2024-02-28T05:30:56;5.09;81.41
76102;SHT30;64830;46.910;6.354;2024-02-28T05:33:22;5.06;81.48
76102;SHT30;64830;46.910;6.354;2024-02-28T05:35:47;5.01;81.58
76102;SHT30;64830;46.910;6.354;2024-02-28T05:38:13;4.97;81.53
76102;SHT30;64830;46.910;6.354;2024-02-28T05:40:38;4.95;81.74
76102;SHT30;64830;46.910;6.354;2024-02-28T05:43:04;4.93;81.77
76102;SHT30;64830;46.910;6.354;2024-02-28T05:45:29;4.90;81.78
76102;SHT30;64830;46.910;6.354;2024-02-28T05:47:55;4.85;81.89
76102;SHT30;64830;46.910;6.354;2024-02-28T05:50:20;4.82;82.21
76102;SHT30;64830;46.910;6.354;2024-02-28T05:52:46;4.81;82.19
76102;SHT30;64830;46.910;6.354;2024-02-28T05:55:11;4.79;82.24
76102;SHT30;64830;46.910;6.354;2024-02-28T05:57:37;4.72;82.16
76102;SHT30;64830;46.910;6.354;2024-02-28T06:00:03;4.69;82.50
76102;SHT30;64830;46.910;6.354;2024-02-28T06:02:36;4.68;82.80
76102;SHT30;64830;46.910;6.354;2024-02-28T06:05:01;4.68;82.61
76102;SHT30;64830;46.910;6.354;2024-02-28T06:07:27;4.65;82.75
76102;SHT30;64830;46.910;6.354;2024-02-28T06:09:52;4.65;82.66
76102;SHT30;64830;46.910;6.354;2024-02-28T06:12:18;4.64;83.08
76102;SHT30;64830;46.910;6.354;2024-02-28T06:14:43;4.64;82.98
76102;SHT30;64830;46.910;6.354;2024-02-28T06:17:08;4.62;82.89
76102;SHT30;64830;46.910;6.354;2024-02-28T06:19:34;4.62;83.19
76102;SHT30;64830;46.910;6.354;2024-02-28T06:21:59;4.62;82.94
76102;SHT30;64830;46.910;6.354;2024-02-28T06:24:25;4.62;83.10
76102;SHT30;64830;46.910;6.354;2024-02-28T06:26:50;4.60;83.15
76102;SHT30;64830;46.910;6.354;2024-02-28T06:29:16;4.61;83.47
76102;SHT30;64830;46.910;6.354;2024-02-28T06:31:41;4.60;83.24
76102;SHT30;64830;46.910;6.354;2024-02-28T06:34:07;4.58;83.33
76102;SHT30;64830;46.910;6.354;2024-02-28T06:36:32;4.57;83.39
76102;SHT30;64830;46.910;6.354;2024-02-28T06:38:58;4.57;83.16
76102;SHT30;64830;46.910;6.354;2024-02-28T06:41:23;4.54;83.27
76102;SHT30;64830;46.910;6.354;2024-02-28T06:43:48;4.58;83.31
76102;SHT30;64830;46.910;6.354;2024-02-28T06:46:14;4.57;83.20
76102;SHT30;64830;46.910;6.354;2024-02-28T06:48:39;4.60;83.24
76102;SHT30;64830;46.910;6.354;2024-02-28T06:51:05;4.58;83.10
76102;SHT30;64830;46.910;6.354;2024-02-28T06:53:30;4.61;83.00
76102;SHT30;64830;46.910;6.354;2024-02-28T06:55:56;4.57;83.00
76102;SHT30;64830;46.910;6.354;2024-02-28T06:58:21;4.60;83.01
76102;SHT30;64830;46.910;6.354;2024-02-28T07:00:48;4.54;82.80
76102;SHT30;64830;46.910;6.354;2024-02-28T07:03:14;4.54;82.91
76102;SHT30;64830;46.910;6.354;2024-02-28T07:05:39;4.54;82.89
76102;SHT30;64830;46.910;6.354;2024-02-28T07:08:04;4.55;82.92
76102;SHT30;64830;46.910;6.354;2024-02-28T07:10:30;4.55;82.68
76102;SHT30;64830;46.910;6.354;2024-02-28T07:12:55;4.53;82.69
76102;SHT30;64830;46.910;6.354;2024-02-28T07:15:21;4.51;82.80
76102;SHT30;64830;46.910;6.354;2024-02-28T07:17:47;4.50;82.64
76102;SHT30;64830;46.910;6.354;2024-02-28T07:20:13;4.50;82.64
76102;SHT30;64830;46.910;6.354;2024-02-28T07:22:38;4.47;82.64
76102;SHT30;64830;46.910;6.354;2024-02-28T07:25:05;4.44;82.76
76102;SHT30;64830;46.910;6.354;2024-02-28T07:27:30;4.44;82.72
76102;SHT30;64830;46.910;6.354;2024-02-28T07:29:56;4.41;82.81
76102;SHT30;64830;46.910;6.354;2024-02-28T07:32:21;4.41;82.68
76102;SHT30;64830;46.910;6.354;2024-02-28T07:34:47;4.40;82.79
76102;SHT30;64830;46.910;6.354;2024-02-28T07:37:12;4.41;82.93
76102;SHT30;64830;46.910;6.354;2024-02-28T07:39:38;4.50;82.93
76102;SHT30;64830;46.910;6.354;2024-02-28T07:42:03;4.55;82.88
76102;SHT30;64830;46.910;6.354;2024-02-28T07:44:29;4.61;82.89
76102;SHT30;64830;46.910;6.354;2024-02-28T07:46:59;4.65;82.58
76102;SHT30;64830;46.910;6.354;2024-02-28T07:49:25;4.68;82.48
76102;SHT30;64830;46.910;6.354;2024-02-28T07:51:50;4.68;82.46
76102;SHT30;64830;46.910;6.354;2024-02-28T07:54:16;4.65;82.45
76102;SHT30;64830;46.910;6.354;2024-02-28T07:56:41;4.68;82.51
76102;SHT30;64830;46.910;6.354;2024-02-28T07:59:07;4.68;82.52
76102;SHT30;64830;46.910;6.354;2024-02-28T08:01:33;4.72;82.28
76102;SHT30;64830;46.910;6.354;2024-02-28T08:03:58;4.72;82.26
76102;SHT30;64830;46.910;6.354;2024-02-28T08:06:24;4.75;82.14
76102;SHT30;64830;46.910;6.354;2024-02-28T08:08:50;4.76;82.19
76102;SHT30;64830;46.910;6.354;2024-02-28T08:11:15;4.79;82.08
76102;SHT30;64830;46.910;6.354;2024-02-28T08:13:41;4.81;81.95
76102;SHT30;64830;46.910;6.354;2024-02-28T08:16:07;4.81;82.13
76102;SHT30;64830;46.910;6.354;2024-02-28T08:18:34;4.82;81.87
76102;SHT30;64830;46.910;6.354;2024-02-28T08:21:00;4.83;81.77
76102;SHT30;64830;46.910;6.354;2024-02-28T08:23:27;4.83;81.77
76102;SHT30;64830;46.910;6.354;2024-02-28T08:25:52;4.88;81.67
76102;SHT30;64830;46.910;6.354;2024-02-28T08:28:18;4.89;81.55
76102;SHT30;64830;46.910;6.354;2024-02-28T08:30:43;4.89;81.40
76102;SHT30;64830;46.910;6.354;2024-02-28T08:33:09;4.90;81.29
76102;SHT30;64830;46.910;6.354;2024-02-28T08:35:35;4.90;81.31
76102;SHT30;64830;46.910;6.354;2024-02-28T08:38:01;4.90;81.21
76102;SHT30;64830;46.910;6.354;2024-02-28T08:40:28;4.93;81.19
76102;SHT30;64830;46.910;6.354;2024-02-28T08:42:53;4.96;81.01
76102;SHT30;64830;46.910;6.354;2024-02-28T08:45:19;4.95;80.96
76102;SHT30;64830;46.910;6.354;2024-02-28T08:47:45;4.93;80.89
76102;SHT30;64830;46.910;6.354;2024-02-28T08:50:10;4.92;80.88
76102;SHT30;64830;46.910;6.354;2024-02-28T08:52:36;4.93;80.86
76102;SHT30;64830;46.910;6.354;2024-02-28T08:55:01;4.95;80.78
76102;SHT30;64830;46.910;6.354;2024-02-28T08:57:28;4.97;80.73
76102;SHT30;64830;46.910;6.354;2024-02-28T08:59:55;4.97;80.74
76102;SHT30;64830;46.910;6.354;2024-02-28T09:02:20;5.03;80.63
76102;SHT30;64830;46.910;6.354;2024-02-28T09:04:46;5.05;80.41
76102;SHT30;64830;46.910;6.354;2024-02-28T09:07:15;5.06;80.39
76102;SHT30;64830;46.910;6.354;2024-02-28T09:09:44;5.10;80.29
76102;SHT30;64830;46.910;6.354;2024-02-28T09:12:10;5.10;80.17
76102;SHT30;64830;46.910;6.354;2024-02-28T09:14:35;5.16;80.08
76102;SHT30;64830;46.910;6.354;2024-02-28T09:17:00;5.15;79.97
76102;SHT30;64830;46.910;6.354;2024-02-28T09:19:29;5.16;79.73
76102;SHT30;64830;46.910;6.354;2024-02-28T09:21:55;5.15;79.54
76102;SHT30;64830;46.910;6.354;2024-02-28T09:24:20;5.16;79.55
76102;SHT30;64830;46.910;6.354;2024-02-28T09:26:45;5.17;79.54
76102;SHT30;64830;46.910;6.354;2024-02-28T09:29:11;5.20;79.44
76102;SHT30;64830;46.910;6.354;2024-02-28T09:31:37;5.26;79.38
76102;SHT30;64830;46.910;6.354;2024-02-28T09:34:02;5.28;79.40
76102;SHT30;64830;46.910;6.354;2024-02-28T09:36:33;5.37;79.25
76102;SHT30;64830;46.910;6.354;2024-02-28T09:38:58;5.38;79.20
76102;SHT30;64830;46.910;6.354;2024-02-28T09:41:23;5.44;79.16
76102;SHT30;64830;46.910;6.354;2024-02-28T09:43:51;5.51;79.03
76102;SHT30;64830;46.910;6.354;2024-02-28T09:46:17;5.54;78.88
76102;SHT30;64830;46.910;6.354;2024-02-28T09:48:42;5.55;78.73
76102;SHT30;64830;46.910;6.354;2024-02-28T09:51:08;5.54;78.53
76102;SHT30;64830;46.910;6.354;2024-02-28T09:53:35;5.51;78.42
76102;SHT30;64830;46.910;6.354;2024-02-28T09:56:00;5.50;78.38
76102;SHT30;64830;46.910;6.354;2024-02-28T09:58:27;5.51;78.27
76102;SHT30;64830;46.910;6.354;2024-02-28T10:00:59;5.52;78.47
76102;SHT30;64830;46.910;6.354;2024-02-28T10:03:27;5.55;78.20
76102;SHT30;64830;46.910;6.354;2024-02-28T10:05:52;5.61;78.28
76102;SHT30;64830;46.910;6.354;2024-02-28T10:08:18;5.63;78.02
76102;SHT30;64830;46.910;6.354;2024-02-28T10:10:47;5.63;77.98
76102;SHT30;64830;46.910;6.354;2024-02-28T10:13:13;5.66;78.07
76102;SHT30;64830;46.910;6.354;2024-02-28T10:15:40;5.68;77.94
76102;SHT30;64830;46.910;6.354;2024-02-28T10:18:06;5.71;77.99
76102;SHT30;64830;46.910;6.354;2024-02-28T10:20:31;5.75;78.01
76102;SHT30;64830;46.910;6.354;2024-02-28T10:22:57;5.78;77.91
76102;SHT30;64830;46.910;6.354;2024-02-28T10:25:22;5.83;77.89
76102;SHT30;64830;46.910;6.354;2024-02-28T10:27:48;5.90;77.75
76102;SHT30;64830;46.910;6.354;2024-02-28T10:30:14;5.96;77.84
76102;SHT30;64830;46.910;6.354;2024-02-28T10:32:48;6.06;77.54
76102;SHT30;64830;46.910;6.354;2024-02-28T10:35:17;6.10;77.47
76102;SHT30;64830;46.910;6.354;2024-02-28T10:37:45;6.14;77.48
76102;SHT30;64830;46.910;6.354;2024-02-28T10:40:13;6.11;77.13
76102;SHT30;64830;46.910;6.354;2024-02-28T10:42:42;6.11;77.19
76102;SHT30;64830;46.910;6.354;2024-02-28T10:45:09;6.13;76.92
76102;SHT30;64830;46.910;6.354;2024-02-28T10:47:40;6.20;77.06
76102;SHT30;64830;46.910;6.354;2024-02-28T10:50:06;6.21;76.88
76102;SHT30;64830;46.910;6.354;2024-02-28T10:52:39;6.21;76.79
76102;SHT30;64830;46.910;6.354;2024-02-28T10:55:08;6.25;76.48
76102;SHT30;64830;46.910;6.354;2024-02-28T10:57:36;6.25;76.49
76102;SHT30;64830;46.910;6.354;2024-02-28T11:00:02;6.25;76.52
76102;SHT30;64830;46.910;6.354;2024-02-28T11:02:31;6.31;76.35
76102;SHT30;64830;46.910;6.354;2024-02-28T11:04:57;6.35;76.18
76102;SHT30;64830;46.910;6.354;2024-02-28T11:07:24;6.38;75.73
76102;SHT30;64830;46.910;6.354;2024-02-28T11:09:54;6.49;75.95
76102;SHT30;64830;46.910;6.354;2024-02-28T11:12:27;6.62;75.52
76102;SHT30;64830;46.910;6.354;2024-02-28T11:15:00;6.69;75.22
76102;SHT30;64830;46.910;6.354;2024-02-28T11:17:28;6.78;74.93
76102;SHT30;64830;46.910;6.354;2024-02-28T11:19:54;6.89;75.06
76102;SHT30;64830;46.910;6.354;2024-02-28T11:22:20;7.01;75.06
76102;SHT30;64830;46.910;6.354;2024-02-28T11:24:47;7.08;74.91
76102;SHT30;64830;46.910;6.354;2024-02-28T11:27:15;7.14;74.77
76102;SHT30;64830;46.910;6.354;2024-02-28T11:29:40;7.15;74.80
76102;SHT30;64830;46.910;6.354;2024-02-28T11:32:06;7.10;74.57
76102;SHT30;64830;46.910;6.354;2024-02-28T11:34:31;7.04;74.87
76102;SHT30;64830;46.910;6.354;2024-02-28T11:36:57;7.00;74.76
76102;SHT30;64830;46.910;6.354;2024-02-28T11:39:23;6.99;74.75
76102;SHT30;64830;46.910;6.354;2024-02-28T11:41:53;6.97;74.88
76102;SHT30;64830;46.910;6.354;2024-02-28T11:44:19;6.99;74.86
76102;SHT30;64830;46.910;6.354;2024-02-28T11:46:46;7.00;74.90
76102;SHT30;64830;46.910;6.354;2024-02-28T11:49:15;7.00;74.84
76102;SHT30;64830;46.910;6.354;2024-02-28T11:51:41;6.95;74.82
76102;SHT30;64830;46.910;6.354;2024-02-28T11:54:08;6.93;74.98
76102;SHT30;64830;46.910;6.354;2024-02-28T11:56:36;6.89;75.15
76102;SHT30;64830;46.910;6.354;2024-02-28T11:59:02;6.90;75.20
76102;SHT30;64830;46.910;6.354;2024-02-28T12:01:47;6.87;74.75
76102;SHT30;64830;46.910;6.354;2024-02-28T12:04:13;6.86;74.99
76102;SHT30;64830;46.910;6.354;2024-02-28T12:06:40;6.83;74.97
76102;SHT30;64830;46.910;6.354;2024-02-28T12:09:07;6.87;74.95
76102;SHT30;64830;46.910;6.354;2024-02-28T12:11:36;6.89;74.78
76102;SHT30;64830;46.910;6.354;2024-02-28T12:14:07;6.85;74.66
76102;SHT30;64830;46.910;6.354;2024-02-28T12:16:36;6.86;74.73
76102;SHT30;64830;46.910;6.354;2024-02-28T12:19:09;6.86;74.51
76102;SHT30;64830;46.910;6.354;2024-02-28T12:21:36;6.86;74.49
76102;SHT30;64830;46.910;6.354;2024-02-28T12:24:02;6.90;74.33
76102;SHT30;64830;46.910;6.354;2024-02-28T12:26:27;6.96;74.42
76102;SHT30;64830;46.910;6.354;2024-02-28T12:28:53;7.00;74.21
76102;SHT30;64830;46.910;6.354;2024-02-28T12:31:18;6.97;73.98
76102;SHT30;64830;46.910;6.354;2024-02-28T12:33:44;6.99;74.00
76102;SHT30;64830;46.910;6.354;2024-02-28T12:36:09;6.99;74.09
76102;SHT30;64830;46.910;6.354;2024-02-28T12:38:35;7.03;73.96
76102;SHT30;64830;46.910;6.354;2024-02-28T12:41:01;7.00;73.55
76102;SHT30;64830;46.910;6.354;2024-02-28T12:43:27;6.97;73.70
76102;SHT30;64830;46.910;6.354;2024-02-28T12:45:52;6.95;73.64
76102;SHT30;64830;46.910;6.354;2024-02-28T12:48:18;7.00;73.38
76102;SHT30;64830;46.910;6.354;2024-02-28T12:50:43;7.01;73.39
76102;SHT30;64830;46.910;6.354;2024-02-28T12:53:09;7.04;73.22
76102;SHT30;64830;46.910;6.354;2024-02-28T12:55:34;7.10;72.92
76102;SHT30;64830;46.910;6.354;2024-02-28T12:58:00;7.13;72.94
76102;SHT30;64830;46.910;6.354;2024-02-28T13:00:29;7.14;72.92
76102;SHT30;64830;46.910;6.354;2024-02-28T13:02:55;7.21;73.03
76102;SHT30;64830;46.910;6.354;2024-02-28T13:05:20;7.24;72.74
76102;SHT30;64830;46.910;6.354;2024-02-28T13:07:46;7.27;72.46
76102;SHT30;64830;46.910;6.354;2024-02-28T13:10:11;7.30;72.23
76102;SHT30;64830;46.910;6.354;2024-02-28T13:12:39;7.35;72.33
76102;SHT30;64830;46.910;6.354;2024-02-28T13:15:06;7.31;72.26
76102;SHT30;64830;46.910;6.354;2024-02-28T13:17:31;7.28;71.77
76102;SHT30;64830;46.910;6.354;2024-02-28T13:19:56;7.30;72.24
76102;SHT30;64830;46.910;6.354;2024-02-28T13:22:22;7.28;72.24
76102;SHT30;64830;46.910;6.354;2024-02-28T13:24:47;7.27;71.99
76102;SHT30;64830;46.910;6.354;2024-02-28T13:27:12;7.25;72.00
76102;SHT30;64830;46.910;6.354;2024-02-28T13:29:38;7.23;72.29
76102;SHT30;64830;46.910;6.354;2024-02-28T13:32:03;7.21;72.20
76102;SHT30;64830;46.910;6.354;2024-02-28T13:34:29;7.17;72.39
76102;SHT30;64830;46.910;6.354;2024-02-28T13:36:55;7.24;72.51
76102;SHT30;64830;46.910;6.354;2024-02-28T13:39:21;7.36;71.50
76102;SHT30;64830;46.910;6.354;2024-02-28T13:41:51;7.56;71.37
76102;SHT30;64830;46.910;6.354;2024-02-28T13:44:18;7.73;70.90
76102;SHT30;64830;46.910;6.354;2024-02-28T13:46:45;7.89;70.49
76102;SHT30;64830;46.910;6.354;2024-02-28T13:49:10;8.05;69.66
76102;SHT30;64830;46.910;6.354;2024-02-28T13:51:37;8.25;69.73
76102;SHT30;64830;46.910;6.354;2024-02-28T13:54:05;8.42;69.28
76102;SHT30;64830;46.910;6.354;2024-02-28T13:56:31;8.59;68.90
76102;SHT30;64830;46.910;6.354;2024-02-28T13:58:57;8.70;69.16
76102;SHT30;64830;46.910;6.354;2024-02-28T14:01:22;8.77;67.97
76102;SHT30;64830;46.910;6.354;2024-02-28T14:03:48;8.83;68.44
76102;SHT30;64830;46.910;6.354;2024-02-28T14:06:13;8.83;67.48
76102;SHT30;64830;46.910;6.354;2024-02-28T14:08:39;8.72;67.35
76102;SHT30;64830;46.910;6.354;2024-02-28T14:11:05;8.60;66.83
76102;SHT30;64830;46.910;6.354;2024-02-28T14:13:30;8.56;66.71
76102;SHT30;64830;46.910;6.354;2024-02-28T14:15:56;8.66;66.20
76102;SHT30;64830;46.910;6.354;2024-02-28T14:18:21;8.73;65.20
76102;SHT30;64830;46.910;6.354;2024-02-28T14:20:47;8.81;64.47
76102;SHT30;64830;46.910;6.354;2024-02-28T14:23:12;8.88;65.54
76102;SHT30;64830;46.910;6.354;2024-02-28T14:25:38;8.88;64.71
76102;SHT30;64830;46.910;6.354;2024-02-28T14:28:03;8.84;64.23
76102;SHT30;64830;46.910;6.354;2024-02-28T14:30:29;8.83;63.55
76102;SHT30;64830;46.910;6.354;2024-02-28T14:32:54;8.80;63.52
76102;SHT30;64830;46.910;6.354;2024-02-28T14:35:20;8.77;62.37
76102;SHT30;64830;46.910;6.354;2024-02-28T14:37:45;8.79;62.64
76102;SHT30;64830;46.910;6.354;2024-02-28T14:40:11;8.81;63.24
76102;SHT30;64830;46.910;6.354;2024-02-28T14:42:41;8.93;63.11
76102;SHT30;64830;46.910;6.354;2024-02-28T14:45:11;8.84;61.43
76102;SHT30;64830;46.910;6.354;2024-02-28T14:47:37;8.90;61.21
76102;SHT30;64830;46.910;6.354;2024-02-28T14:50:03;8.93;60.12
76102;SHT30;64830;46.910;6.354;2024-02-28T14:52:29;8.97;60.47
76102;SHT30;64830;46.910;6.354;2024-02-28T14:54:54;9.08;60.36
76102;SHT30;64830;46.910;6.354;2024-02-28T14:57:20;9.07;59.03
76102;SHT30;64830;46.910;6.354;2024-02-28T14:59:45;9.07;59.48
76102;SHT30;64830;46.910;6.354;2024-02-28T15:02:11;9.05;59.45
76102;SHT30;64830;46.910;6.354;2024-02-28T15:04:37;9.10;59.53
76102;SHT30;64830;46.910;6.354;2024-02-28T15:07:04;9.11;59.17
76102;SHT30;64830;46.910;6.354;2024-02-28T15:09:29;9.17;59.86
76102;SHT30;64830;46.910;6.354;2024-02-28T15:11:55;9.14;59.33
76102;SHT30;64830;46.910;6.354;2024-02-28T15:14:22;9.12;59.01
76102;SHT30;64830;46.910;6.354;2024-02-28T15:16:48;9.11;58.05
76102;SHT30;64830;46.910;6.354;2024-02-28T15:19:13;9.15;58.56
76102;SHT30;64830;46.910;6.354;2024-02-28T15:21:39;9.15;58.10
76102;SHT30;64830;46.910;6.354;2024-02-28T15:24:04;9.21;58.50
76102;SHT30;64830;46.910;6.354;2024-02-28T15:26:30;9.27;57.50
76102;SHT30;64830;46.910;6.354;2024-02-28T15:28:55;9.28;57.94
76102;SHT30;64830;46.910;6.354;2024-02-28T15:31:21;9.29;57.69
76102;SHT30;64830;46.910;6.354;2024-02-28T15:33:50;9.31;57.59
76102;SHT30;64830;46.910;6.354;2024-02-28T15:36:16;9.32;57.07